Flight Track Log - Related Links

Times and Time Zones

All times are in EDT time to prevent confusion due to time zone crossing. See the UAL634 flight status page for this flight to view local times or setup timezone preferences in your user account.

Time Position Orientation Groundspeed Altitude Reporting Facility
EDT Latitude Longitude Course Direction KTS MPH feet Rate Location/Type
Mon 08:10:27 AM 42.0000 -87.8833 90° East 149 171 1,900  Level Chicago TRACON
Mon 08:11:27 AM 42.0000 -87.8000 90° East 203 234 4,100 2,914 Climbing Chicago TRACON
Mon 08:12:00 AM 42.0425 -87.4590 82° East  Level FlightAware Approximate
Mon 08:12:47 AM 42.0092 -87.6861 84° East 247 284 8,700  Level Chicago Center
Mon 08:13:00 AM 42.0617 -87.3076 78° East  Level FlightAware Approximate
Mon 08:13:49 AM 42.0261 -87.5864 77° East 272 313 12,000  Level Chicago Center
Mon 08:14:00 AM 42.0863 -87.1578 66° East  Level FlightAware Approximate
Mon 08:14:51 AM 42.0453 -87.4700 77° East 295 339 14,900  Level Chicago Center
Mon 08:15:00 AM 42.1000 -87.0080 90° East  Level FlightAware Approximate
Mon 08:15:53 AM 42.0658 -87.3511 77° East 323 372 17,300  Level Chicago Center
Mon 08:16:55 AM 42.0883 -87.2147 77° East 362 417 18,800 1,839 Climbing Chicago Center
Mon 08:17:57 AM 42.1111 -87.0703 78° East 385 443 21,100 1,935 Climbing Chicago Center
Mon 08:18:59 AM 42.1164 -86.9136 87° East 413 475 22,800 919 Climbing Chicago Center
Mon 08:20:01 AM 42.1228 -86.7575 87° East 417 480 23,000 194 Climbing Chicago Center
Mon 08:21:03 AM 42.1303 -86.5822 87° East 418 481 23,200 1,016 Climbing Chicago Center
Mon 08:22:05 AM 42.1350 -86.4236 88° East 420 483 25,100 1,645 Climbing Chicago Center
Mon 08:23:07 AM 42.1400 -86.2578 88° East 439 505 26,600 1,548 Climbing Chicago Center
Mon 08:24:09 AM 42.1444 -86.0878 88° East 449 517 28,300 1,597 Climbing Chicago Center
Mon 08:25:11 AM 42.1419 -85.8922 91° East 462 532 29,900 1,500 Climbing Chicago Center
Mon 08:26:13 AM 42.1403 -85.7133 91° East 475 547 31,400 1,403 Climbing Chicago Center
Mon 08:27:15 AM 42.1389 -85.5311 91° East 486 559 32,800 1,452 Climbing Chicago Center
Mon 08:28:17 AM 42.1375 -85.3497 91° East 487 560 34,400 1,113 Climbing Chicago Center
Mon 08:29:19 AM 42.1356 -85.1628 91° East 498 573 35,100 1,161 Climbing Chicago Center
Mon 08:30:21 AM 42.1322 -84.9367 91° East 506 582 36,800 1,161 Climbing Chicago Center
Mon 08:31:23 AM 42.1250 -84.7511 93° East 502 578 37,500 823 Climbing Chicago Center
Mon 08:32:25 AM 42.1136 -84.5678 95° East 499 574 38,500 884 Climbing Chicago Center
Mon 08:32:58 AM 42.1067 -84.4639 95° East 500 575 38,900 253 Climbing Cleveland Center
Mon 08:34:00 AM 42.0953 -84.2711 94° East 499 574 38,900 48 Level Cleveland Center
Mon 08:35:02 AM 42.0831 -84.0867 95° East 499 574 39,000 48 Climbing Cleveland Center
Mon 08:36:04 AM 42.0714 -83.8997 95° East 502 578 39,000  Level Cleveland Center
Mon 08:37:06 AM 42.0597 -83.7150 95° East 502 578 39,000  Level Cleveland Center
Mon 08:38:08 AM 42.0439 -83.4964 95° East 502 578 39,000  Level Cleveland Center
Mon 08:39:10 AM 42.0308 -83.3067 95° East 503 579 39,000  Level Cleveland Center
Mon 08:40:12 AM 42.0186 -83.1244 95° East 503 579 39,000 -48 Level Cleveland Center
Mon 08:41:14 AM 42.0047 -82.9383 96° East 503 579 38,900 -48 Descending Cleveland Center
Mon 08:42:16 AM 41.9875 -82.7111 96° East 509 586 38,900 48 Level Cleveland Center
Mon 08:43:18 AM 41.9731 -82.5186 96° East 516 594 39,000 48 Climbing Cleveland Center
Mon 08:44:20 AM 41.9581 -82.3250 96° East 522 601 39,000  Level Cleveland Center
Mon 08:45:22 AM 41.9414 -82.1136 96° East 523 602 39,000  Level Cleveland Center
Mon 08:46:24 AM 41.9247 -81.9175 96° East 524 603 39,000 -48 Level Cleveland Center
Mon 08:47:26 AM 41.9083 -81.7225 96° East 522 601 38,900 -48 Descending Cleveland Center
Mon 08:48:28 AM 41.8903 -81.5272 97° East 522 601 38,900  Level Cleveland Center
Mon 08:49:29 AM 41.8725 -81.3331 97° East 521 600 38,900  Level Cleveland Center
Mon 08:50:31 AM 41.8550 -81.1378 97° East 521 600 38,900 48 Level Cleveland Center
Mon 08:51:33 AM 41.8375 -80.9458 97° East 517 595 39,000 48 Climbing Cleveland Center
Mon 08:52:35 AM 41.8183 -80.7503 97° East 519 597 39,000  Level Cleveland Center
Mon 08:53:37 AM 41.7997 -80.5544 97° East 522 601 39,000 -48 Level Cleveland Center
Mon 08:54:39 AM 41.7769 -80.3278 98° East 522 601 38,900 -48 Descending Cleveland Center
Mon 08:55:41 AM 41.7561 -80.1308 98° East 526 605 38,900  Level Cleveland Center
Mon 08:56:43 AM 41.7364 -79.9361 98° East 527 606 38,900 48 Level Cleveland Center
Mon 08:57:45 AM 41.7158 -79.7397 98° East 528 608 39,000 48 Climbing Cleveland Center
Mon 08:58:47 AM 41.6928 -79.5361 99° East 528 608 39,000  Level Cleveland Center
Mon 08:59:50 AM 41.6725 -79.3369 98° East 536 617 39,000  Level Cleveland Center
Mon 09:00:52 AM 41.6506 -79.1397 98° East 537 618 39,000  Level Cleveland Center
Mon 09:01:54 AM 41.6272 -78.9414 99° East 537 618 39,000 -145 Level Cleveland Center
Mon 09:02:56 AM 41.6008 -78.7036 98° East 538 619 38,700 -629 Descending Cleveland Center
Mon 09:03:58 AM 41.5775 -78.5103 99° East 532 612 37,700 -968 Descending Cleveland Center
Mon 09:05:00 AM 41.5558 -78.3244 99° East 512 589 36,700 -968 Descending Cleveland Center
Mon 09:06:02 AM 41.5342 -78.1406 99° East 506 582 35,700 -968 Descending Cleveland Center
Mon 09:07:04 AM 41.5103 -77.9589 100° East 502 578 34,700 -968 Descending Cleveland Center
Mon 09:08:06 AM 41.4864 -77.7858 100° East 482 555 33,700 -2,226 Descending Cleveland Center
Mon 09:09:08 AM 41.4569 -77.5756 101° East 485 558 30,100 -2,274 Descending Cleveland Center
Mon 09:10:10 AM 41.4311 -77.3969 101° East 495 570 29,000 -1,016 Descending Cleveland Center
Mon 09:11:12 AM 41.4028 -77.2156 102° East 492 566 28,000 -1,131 Descending New York Center
Mon 09:12:12 AM 41.3783 -77.0472 101° East 479 551 26,700 -1,550 Descending New York Center
Mon 09:13:12 AM 41.3536 -76.8847 101° East 465 535 24,900 -1,800 Descending New York Center
Mon 09:14:12 AM 41.3261 -76.7303 103° East 439 505 23,100 -1,950 Descending New York Center
Mon 09:15:12 AM 41.2872 -76.5886 110° East 419 482 21,000 -2,000 Descending New York Center
Mon 09:16:12 AM 41.2483 -76.4472 110° East 413 475 19,100 -1,500 Descending New York Center
Mon 09:17:12 AM 41.2131 -76.3092 109° East 402 463 18,000 -550 Descending New York Center
Mon 09:18:12 AM 41.1756 -76.1739 110° East 395 455 18,000  Level New York Center
Mon 09:19:13 AM 41.1400 -76.0386 109° East 395 455 18,000  Level New York Center
Mon 09:20:12 AM 41.1078 -75.9178 109° East 395 455 18,000  Level New York Center
Mon 09:21:12 AM 41.0664 -75.7689 110° East 395 455 18,000 -500 Level New York Center
Mon 09:22:12 AM 41.0283 -75.6311 110° East 395 455 17,000 -1,600 Descending New York Center
Mon 09:23:12 AM 40.9897 -75.5019 112° Southeast 395 455 14,800 -2,000 Descending New York Center
Mon 09:24:12 AM 40.9611 -75.3872 108° East 375 432 13,000 -1,900 Descending New York Center
Mon 09:25:12 AM 40.9242 -75.2639 112° Southeast 369 425 11,000 -1,450 Descending New York Center
Mon 09:26:12 AM 40.8931 -75.1467 109° East 321 369 10,100 -1,500 Descending New York Center
Mon 09:27:12 AM 40.8631 -75.0514 113° Southeast 289 333 8,000 -1,550 Descending New York Center
Mon 09:28:12 AM 40.8289 -74.9614 117° Southeast 278 320 7,000 -950 Descending New York Center
Mon 09:29:12 AM 40.7942 -74.8853 121° Southeast 272 313 6,100 -500 Descending New York Center
Mon 09:30:12 AM 40.8000 -74.7733 86° East 261 300 6,000 -50 Descending New York Center
Mon 09:31:13 AM 40.8133 -74.6836 79° East 274 315 6,000  Level New York Center
Mon 09:32:12 AM 40.8764 -74.6103 41° Northeast 270 311 6,000  Level New York Center
Mon 09:33:12 AM 40.9422 -74.5675 26° Northeast 276 318 6,000 -450 Level New York Center
Mon 09:34:12 AM 40.9744 -74.4703 66° East 259 298 5,100 -496 Descending New York Center
Mon 09:35:13 AM 40.9856 -74.3856 80° East 251 289 5,000 -350 Descending New York Center
Mon 09:36:12 AM 40.9842 -74.2922 91° East 235 270 4,400 -504 Descending New York Center
Mon 09:37:12 AM 40.9800 -74.2233 95° East 220 253 4,000 -200 Descending New York Center
Mon 09:38:12 AM 40.9800 -74.1464 90° East 214 246 4,000 -450 Level New York Center
Mon 09:39:12 AM 40.9333 -74.1000 143° Southeast 188 216 3,100 -408 Descending New York Center
Mon 09:40:39 AM 40.8667 -74.0833 169° South 152 175 3,000 -43 Descending New York TRACON
Mon 09:41:33 AM 40.8333 -74.0833 180° South 155 178 3,000 -444 Level New York TRACON
Mon 09:42:27 AM 40.8000 -74.1000 201° Southwest 162 186 2,200 -789 Descending New York TRACON
Mon 09:43:27 AM 40.7667 -74.1167 201° Southwest 128 147 1,500 -700 Descending New York TRACON
Mon 09:44:27 AM 40.7333 -74.1333 201° Southwest 117 135 800 -700 Descending New York TRACON

Login

Don't have an account? Register now (free) for customized features, flight alerts, and more!